KMNH

Monument Pass Airport

Monument Pass, Colorado, USA
METAR KMNH 220954Z AUTO 19005KT 10SM CLR 05/01 A3009 RMK AO2
Observed Flight Rules
May-22 @ 09:54 UTC (24 minutes ago) Visual Flight Rules
Wind Visibility Clouds
190° at 5 knots 10 miles
  • Clear skies
Temperatures Readings
Current 5°C / 41°F
Dewpoint 1°C / 34°F
Humidity 76%
Altimeter 30.09" Hg
Pressure 1019 hPa
Elevation 2152
METAR KMNH 220954Z AUTO 19005KT 10SM CLR 05/01 A3009 RMK AO2
Observed Flight Rules
May-22 @ 09:54 UTC
(24 minutes ago)
VFR
Wind Visibility
190° at 5 knots 10 miles
Clouds
  • Clear skies
Temperature Dewpoint
5°C / 41°F 1°C / 34°F
Humidity Altimeter Pressure
76% 30.09" Hg 1019 hPa